sensor_id;sensor_type;location;lat;lon;timestamp;temperature;humidity
32107;DHT22;18622;51.998;10.440;2023-09-19T03:30:24;16.60;99.90
32107;DHT22;18622;51.998;10.440;2023-09-19T03:32:52;16.50;99.90
32107;DHT22;18622;51.998;10.440;2023-09-19T03:35:20;16.50;99.90
32107;DHT22;18622;51.998;10.440;2023-09-19T03:37:48;16.50;99.90
32107;DHT22;18622;51.998;10.440;2023-09-19T03:40:16;16.40;99.90
32107;DHT22;18622;51.998;10.440;2023-09-19T03:42:45;16.40;99.90
32107;DHT22;18622;51.998;10.440;2023-09-19T03:45:14;16.40;99.90
32107;DHT22;18622;51.998;10.440;2023-09-19T03:50:11;16.40;99.90
32107;DHT22;18622;51.998;10.440;2023-09-19T03:52:39;16.30;99.90
32107;DHT22;18622;51.998;10.440;2023-09-19T03:55:07;16.30;99.90
32107;DHT22;18622;51.998;10.440;2023-09-19T03:57:37;16.20;99.90
32107;DHT22;18622;51.998;10.440;2023-09-19T04:00:05;16.20;99.90
32107;DHT22;18622;51.998;10.440;2023-09-19T04:02:39;16.30;99.90
32107;DHT22;18622;51.998;10.440;2023-09-19T04:05:07;16.20;99.90
32107;DHT22;18622;51.998;10.440;2023-09-19T04:07:36;16.20;99.90
32107;DHT22;18622;51.998;10.440;2023-09-19T04:10:04;16.10;99.90
32107;DHT22;18622;51.998;10.440;2023-09-19T04:12:32;16.00;99.90
32107;DHT22;18622;51.998;10.440;2023-09-19T04:15:00;16.00;99.90
32107;DHT22;18622;51.998;10.440;2023-09-19T04:17:28;16.00;99.90
32107;DHT22;18622;51.998;10.440;2023-09-19T04:19:56;16.00;99.90
32107;DHT22;18622;51.998;10.440;2023-09-19T04:22:24;16.00;99.90
32107;DHT22;18622;51.998;10.440;2023-09-19T04:24:52;16.10;99.90
32107;DHT22;18622;51.998;10.440;2023-09-19T04:27:20;16.10;99.90
32107;DHT22;18622;51.998;10.440;2023-09-19T04:29:47;16.10;99.90
32107;DHT22;18622;51.998;10.440;2023-09-19T04:32:17;16.10;99.90
32107;DHT22;18622;51.998;10.440;2023-09-19T04:34:45;16.00;99.90
32107;DHT22;18622;51.998;10.440;2023-09-19T04:37:14;16.10;99.90
32107;DHT22;18622;51.998;10.440;2023-09-19T04:39:42;16.20;99.90
32107;DHT22;18622;51.998;10.440;2023-09-19T04:42:10;16.20;99.90
32107;DHT22;18622;51.998;10.440;2023-09-19T04:44:39;16.30;99.90
32107;DHT22;18622;51.998;10.440;2023-09-19T04:47:07;16.30;99.90
32107;DHT22;18622;51.998;10.440;2023-09-19T04:49:35;16.40;99.90
32107;DHT22;18622;51.998;10.440;2023-09-19T04:52:03;16.40;99.90
32107;DHT22;18622;51.998;10.440;2023-09-19T04:54:31;16.50;99.90
32107;DHT22;18622;51.998;10.440;2023-09-19T04:57:00;16.50;99.90
32107;DHT22;18622;51.998;10.440;2023-09-19T04:59:28;16.50;99.90
32107;DHT22;18622;51.998;10.440;2023-09-19T05:01:56;16.60;99.90
32107;DHT22;18622;51.998;10.440;2023-09-19T05:04:24;16.60;99.90
32107;DHT22;18622;51.998;10.440;2023-09-19T05:06:54;16.60;99.90
32107;DHT22;18622;51.998;10.440;2023-09-19T05:09:22;16.50;99.90
32107;DHT22;18622;51.998;10.440;2023-09-19T05:11:50;16.50;99.90
32107;DHT22;18622;51.998;10.440;2023-09-19T05:14:18;16.40;99.90
32107;DHT22;18622;51.998;10.440;2023-09-19T05:16:46;16.40;99.90
32107;DHT22;18622;51.998;10.440;2023-09-19T05:19:14;16.40;99.90
32107;DHT22;18622;51.998;10.440;2023-09-19T05:21:42;16.30;99.90
32107;DHT22;18622;51.998;10.440;2023-09-19T05:24:09;16.30;99.90
32107;DHT22;18622;51.998;10.440;2023-09-19T05:26:39;16.30;99.90
32107;DHT22;18622;51.998;10.440;2023-09-19T05:29:07;16.30;99.90
32107;DHT22;18622;51.998;10.440;2023-09-19T05:31:35;16.30;99.90
32107;DHT22;18622;51.998;10.440;2023-09-19T05:34:04;16.30;99.90
32107;DHT22;18622;51.998;10.440;2023-09-19T05:36:32;16.30;99.90
32107;DHT22;18622;51.998;10.440;2023-09-19T05:39:00;16.30;99.90
32107;DHT22;18622;51.998;10.440;2023-09-19T05:41:28;16.30;99.90
32107;DHT22;18622;51.998;10.440;2023-09-19T05:43:56;16.30;99.90
32107;DHT22;18622;51.998;10.440;2023-09-19T05:46:25;16.30;99.90
32107;DHT22;18622;51.998;10.440;2023-09-19T05:48:55;16.20;99.90
32107;DHT22;18622;51.998;10.440;2023-09-19T05:51:26;16.20;99.90
32107;DHT22;18622;51.998;10.440;2023-09-19T05:53:55;16.20;99.90
32107;DHT22;18622;51.998;10.440;2023-09-19T05:56:23;16.20;99.90
32107;DHT22;18622;51.998;10.440;2023-09-19T05:58:51;16.10;99.90
32107;DHT22;18622;51.998;10.440;2023-09-19T06:01:19;16.10;99.90
32107;DHT22;18622;51.998;10.440;2023-09-19T06:03:46;16.00;99.90
32107;DHT22;18622;51.998;10.440;2023-09-19T06:06:14;16.00;99.90
32107;DHT22;18622;51.998;10.440;2023-09-19T06:08:43;16.00;99.90
32107;DHT22;18622;51.998;10.440;2023-09-19T06:11:12;16.00;99.90
32107;DHT22;18622;51.998;10.440;2023-09-19T06:13:41;16.00;99.90
32107;DHT22;18622;51.998;10.440;2023-09-19T06:16:08;15.90;99.90
32107;DHT22;18622;51.998;10.440;2023-09-19T06:18:36;15.90;99.90
32107;DHT22;18622;51.998;10.440;2023-09-19T06:21:04;15.90;99.90
32107;DHT22;18622;51.998;10.440;2023-09-19T06:23:37;15.90;99.90
32107;DHT22;18622;51.998;10.440;2023-09-19T06:26:04;15.80;99.90
32107;DHT22;18622;51.998;10.440;2023-09-19T06:28:33;15.80;99.90
32107;DHT22;18622;51.998;10.440;2023-09-19T06:31:02;15.80;99.90
32107;DHT22;18622;51.998;10.440;2023-09-19T06:33:32;15.80;99.90
32107;DHT22;18622;51.998;10.440;2023-09-19T06:36:00;15.80;99.90
32107;DHT22;18622;51.998;10.440;2023-09-19T06:38:27;15.90;99.90
32107;DHT22;18622;51.998;10.440;2023-09-19T06:40:55;15.90;99.90
32107;DHT22;18622;51.998;10.440;2023-09-19T06:43:23;16.00;99.90
32107;DHT22;18622;51.998;10.440;2023-09-19T06:45:51;16.00;99.90
32107;DHT22;18622;51.998;10.440;2023-09-19T06:48:21;16.10;99.90
32107;DHT22;18622;51.998;10.440;2023-09-19T06:50:48;16.20;99.90
32107;DHT22;18622;51.998;10.440;2023-09-19T06:53:16;16.20;99.90
32107;DHT22;18622;51.998;10.440;2023-09-19T06:55:44;16.30;99.90
32107;DHT22;18622;51.998;10.440;2023-09-19T06:58:12;16.40;99.90
32107;DHT22;18622;51.998;10.440;2023-09-19T07:00:40;16.50;99.90
32107;DHT22;18622;51.998;10.440;2023-09-19T07:03:08;16.60;99.90
32107;DHT22;18622;51.998;10.440;2023-09-19T07:05:39;16.70;99.20
32107;DHT22;18622;51.998;10.440;2023-09-19T07:08:08;16.80;99.60
32107;DHT22;18622;51.998;10.440;2023-09-19T07:10:39;16.80;99.30
32107;DHT22;18622;51.998;10.440;2023-09-19T07:13:15;16.90;98.90
32107;DHT22;18622;51.998;10.440;2023-09-19T07:15:46;16.90;98.70
32107;DHT22;18622;51.998;10.440;2023-09-19T07:18:14;17.00;98.70
32107;DHT22;18622;51.998;10.440;2023-09-19T07:20:44;17.00;99.00
32107;DHT22;18622;51.998;10.440;2023-09-19T07:25:59;17.10;98.30
32107;DHT22;18622;51.998;10.440;2023-09-19T07:28:27;17.10;98.20
32107;DHT22;18622;51.998;10.440;2023-09-19T07:30:55;17.30;98.20
32107;DHT22;18622;51.998;10.440;2023-09-19T07:33:23;17.30;97.80
32107;DHT22;18622;51.998;10.440;2023-09-19T07:35:52;17.40;98.00
32107;DHT22;18622;51.998;10.440;2023-09-19T07:38:20;17.50;97.50
32107;DHT22;18622;51.998;10.440;2023-09-19T07:40:48;17.60;97.50
32107;DHT22;18622;51.998;10.440;2023-09-19T07:43:16;17.80;97.20
32107;DHT22;18622;51.998;10.440;2023-09-19T07:45:44;17.90;96.80
32107;DHT22;18622;51.998;10.440;2023-09-19T07:48:12;18.00;96.20
32107;DHT22;18622;51.998;10.440;2023-09-19T07:50:42;18.00;96.30
32107;DHT22;18622;51.998;10.440;2023-09-19T07:53:14;18.10;95.90
32107;DHT22;18622;51.998;10.440;2023-09-19T07:55:44;18.10;95.90
32107;DHT22;18622;51.998;10.440;2023-09-19T07:58:13;18.30;96.10
32107;DHT22;18622;51.998;10.440;2023-09-19T08:00:42;18.40;95.60
32107;DHT22;18622;51.998;10.440;2023-09-19T08:03:10;18.40;95.70
32107;DHT22;18622;51.998;10.440;2023-09-19T08:05:39;18.60;95.90
32107;DHT22;18622;51.998;10.440;2023-09-19T08:08:09;18.90;95.20
32107;DHT22;18622;51.998;10.440;2023-09-19T08:10:37;19.00;95.10
32107;DHT22;18622;51.998;10.440;2023-09-19T08:13:06;19.10;94.70
32107;DHT22;18622;51.998;10.440;2023-09-19T08:15:36;19.20;93.80
32107;DHT22;18622;51.998;10.440;2023-09-19T08:18:04;19.20;93.90
32107;DHT22;18622;51.998;10.440;2023-09-19T08:20:32;19.20;93.80
32107;DHT22;18622;51.998;10.440;2023-09-19T08:23:01;19.30;94.00
32107;DHT22;18622;51.998;10.440;2023-09-19T08:25:30;19.30;93.50
32107;DHT22;18622;51.998;10.440;2023-09-19T08:27:58;19.30;93.70
32107;DHT22;18622;51.998;10.440;2023-09-19T08:30:26;19.30;93.30
32107;DHT22;18622;51.998;10.440;2023-09-19T08:32:58;19.20;93.50
32107;DHT22;18622;51.998;10.440;2023-09-19T08:35:29;19.20;93.60
32107;DHT22;18622;51.998;10.440;2023-09-19T08:37:56;19.20;93.50
32107;DHT22;18622;51.998;10.440;2023-09-19T08:40:24;19.20;93.60
32107;DHT22;18622;51.998;10.440;2023-09-19T08:42:55;19.30;93.40
32107;DHT22;18622;51.998;10.440;2023-09-19T08:45:23;19.40;93.50
32107;DHT22;18622;51.998;10.440;2023-09-19T08:51:00;19.40;93.50
32107;DHT22;18622;51.998;10.440;2023-09-19T08:56:07;19.50;92.50
32107;DHT22;18622;51.998;10.440;2023-09-19T09:01:17;19.70;92.60
32107;DHT22;18622;51.998;10.440;2023-09-19T09:03:48;19.80;92.40
32107;DHT22;18622;51.998;10.440;2023-09-19T09:06:16;20.00;92.10
32107;DHT22;18622;51.998;10.440;2023-09-19T09:08:45;20.10;92.00
32107;DHT22;18622;51.998;10.440;2023-09-19T09:11:14;20.30;91.60
32107;DHT22;18622;51.998;10.440;2023-09-19T09:13:47;20.50;90.90
32107;DHT22;18622;51.998;10.440;2023-09-19T09:16:15;20.80;90.80
32107;DHT22;18622;51.998;10.440;2023-09-19T09:18:45;21.10;90.50
32107;DHT22;18622;51.998;10.440;2023-09-19T09:21:13;21.40;88.20
32107;DHT22;18622;51.998;10.440;2023-09-19T09:23:41;21.40;86.70
32107;DHT22;18622;51.998;10.440;2023-09-19T09:26:09;21.40;87.30
32107;DHT22;18622;51.998;10.440;2023-09-19T09:28:44;21.40;85.60
32107;DHT22;18622;51.998;10.440;2023-09-19T09:31:11;21.40;85.50
32107;DHT22;18622;51.998;10.440;2023-09-19T09:33:39;21.40;86.70
32107;DHT22;18622;51.998;10.440;2023-09-19T09:36:08;21.50;86.30
32107;DHT22;18622;51.998;10.440;2023-09-19T09:38:43;21.80;87.10
32107;DHT22;18622;51.998;10.440;2023-09-19T09:41:12;22.10;83.60
32107;DHT22;18622;51.998;10.440;2023-09-19T09:43:43;22.20;83.00
32107;DHT22;18622;51.998;10.440;2023-09-19T09:46:20;22.30;81.10
32107;DHT22;18622;51.998;10.440;2023-09-19T09:48:59;22.20;80.80
32107;DHT22;18622;51.998;10.440;2023-09-19T09:54:30;22.30;80.30
32107;DHT22;18622;51.998;10.440;2023-09-19T09:57:08;22.50;79.30
32107;DHT22;18622;51.998;10.440;2023-09-19T09:59:54;22.60;79.20
32107;DHT22;18622;51.998;10.440;2023-09-19T10:02:28;22.80;79.80
32107;DHT22;18622;51.998;10.440;2023-09-19T10:04:56;23.00;78.70
32107;DHT22;18622;51.998;10.440;2023-09-19T10:07:38;23.20;77.50
32107;DHT22;18622;51.998;10.440;2023-09-19T10:10:08;23.00;76.60
32107;DHT22;18622;51.998;10.440;2023-09-19T10:15:31;23.30;77.80
32107;DHT22;18622;51.998;10.440;2023-09-19T10:18:00;23.50;76.90
32107;DHT22;18622;51.998;10.440;2023-09-19T10:20:29;23.70;76.80
32107;DHT22;18622;51.998;10.440;2023-09-19T10:23:07;23.90;75.40
32107;DHT22;18622;51.998;10.440;2023-09-19T10:25:42;23.60;75.40
32107;DHT22;18622;51.998;10.440;2023-09-19T10:28:11;23.50;75.30
32107;DHT22;18622;51.998;10.440;2023-09-19T10:30:44;23.60;75.70
32107;DHT22;18622;51.998;10.440;2023-09-19T10:33:15;23.70;74.10
32107;DHT22;18622;51.998;10.440;2023-09-19T10:35:47;23.60;74.10
32107;DHT22;18622;51.998;10.440;2023-09-19T10:38:23;23.70;75.00
32107;DHT22;18622;51.998;10.440;2023-09-19T10:40:55;24.20;75.20
32107;DHT22;18622;51.998;10.440;2023-09-19T10:43:21;24.60;72.60
32107;DHT22;18622;51.998;10.440;2023-09-19T10:45:50;24.60;71.40
32107;DHT22;18622;51.998;10.440;2023-09-19T10:48:20;24.40;71.60
32107;DHT22;18622;51.998;10.440;2023-09-19T10:50:58;24.40;72.20
32107;DHT22;18622;51.998;10.440;2023-09-19T10:53:28;24.40;70.30
32107;DHT22;18622;51.998;10.440;2023-09-19T10:55:59;24.30;70.90
32107;DHT22;18622;51.998;10.440;2023-09-19T10:58:32;24.30;69.90
32107;DHT22;18622;51.998;10.440;2023-09-19T11:01:04;24.30;71.30
32107;DHT22;18622;51.998;10.440;2023-09-19T11:03:34;24.30;70.70
32107;DHT22;18622;51.998;10.440;2023-09-19T11:06:17;24.30;69.50
32107;DHT22;18622;51.998;10.440;2023-09-19T11:11:41;24.20;69.20
32107;DHT22;18622;51.998;10.440;2023-09-19T11:30:43;25.10;68.70
32107;DHT22;18622;51.998;10.440;2023-09-19T11:46:34;26.50;61.30
32107;DHT22;18622;51.998;10.440;2023-09-19T11:49:08;26.50;61.40
32107;DHT22;18622;51.998;10.440;2023-09-19T11:51:41;26.50;60.40
32107;DHT22;18622;51.998;10.440;2023-09-19T11:56:54;26.00;61.40
32107;DHT22;18622;51.998;10.440;2023-09-19T11:59:24;26.00;61.30
32107;DHT22;18622;51.998;10.440;2023-09-19T12:01:58;26.10;61.50
32107;DHT22;18622;51.998;10.440;2023-09-19T12:07:06;26.10;59.80
32107;DHT22;18622;51.998;10.440;2023-09-19T12:09:41;25.80;60.60
32107;DHT22;18622;51.998;10.440;2023-09-19T12:12:23;25.40;61.20
32107;DHT22;18622;51.998;10.440;2023-09-19T12:14:54;25.20;61.90
32107;DHT22;18622;51.998;10.440;2023-09-19T12:17:24;25.00;62.20
32107;DHT22;18622;51.998;10.440;2023-09-19T12:19:52;25.00;62.40
32107;DHT22;18622;51.998;10.440;2023-09-19T12:22:20;25.20;62.30
32107;DHT22;18622;51.998;10.440;2023-09-19T12:24:48;25.70;61.30
32107;DHT22;18622;51.998;10.440;2023-09-19T12:27:17;26.10;60.60
32107;DHT22;18622;51.998;10.440;2023-09-19T12:29:47;26.50;59.40
32107;DHT22;18622;51.998;10.440;2023-09-19T12:32:38;27.00;58.30
32107;DHT22;18622;51.998;10.440;2023-09-19T12:35:03;27.20;57.90
32107;DHT22;18622;51.998;10.440;2023-09-19T12:37:33;27.30;57.00
32107;DHT22;18622;51.998;10.440;2023-09-19T12:40:07;27.20;57.90
32107;DHT22;18622;51.998;10.440;2023-09-19T12:42:37;27.40;56.70
32107;DHT22;18622;51.998;10.440;2023-09-19T12:45:07;27.60;56.80
32107;DHT22;18622;51.998;10.440;2023-09-19T12:47:35;27.90;56.00
32107;DHT22;18622;51.998;10.440;2023-09-19T12:50:13;28.10;55.00
32107;DHT22;18622;51.998;10.440;2023-09-19T12:52:51;28.10;54.40
32107;DHT22;18622;51.998;10.440;2023-09-19T12:55:26;28.20;54.40
32107;DHT22;18622;51.998;10.440;2023-09-19T12:58:11;28.90;54.20
32107;DHT22;18622;51.998;10.440;2023-09-19T13:00:41;29.10;51.60
32107;DHT22;18622;51.998;10.440;2023-09-19T13:05:54;29.50;52.10
32107;DHT22;18622;51.998;10.440;2023-09-19T13:08:38;29.70;51.10
32107;DHT22;18622;51.998;10.440;2023-09-19T13:11:15;29.90;51.40
32107;DHT22;18622;51.998;10.440;2023-09-19T13:14:13;30.20;50.40
32107;DHT22;18622;51.998;10.440;2023-09-19T13:16:22;30.30;49.40
32107;DHT22;18622;51.998;10.440;2023-09-19T13:18:55;30.20;48.20
32107;DHT22;18622;51.998;10.440;2023-09-19T13:21:32;29.90;48.80
32107;DHT22;18622;51.998;10.440;2023-09-19T13:24:23;29.50;49.20
32107;DHT22;18622;51.998;10.440;2023-09-19T13:26:52;29.00;49.20
32107;DHT22;18622;51.998;10.440;2023-09-19T13:29:20;28.50;50.00
32107;DHT22;18622;51.998;10.440;2023-09-19T13:31:49;28.20;51.00
32107;DHT22;18622;51.998;10.440;2023-09-19T13:34:18;28.00;51.10
32107;DHT22;18622;51.998;10.440;2023-09-19T13:36:46;27.80;50.30
32107;DHT22;18622;51.998;10.440;2023-09-19T13:39:16;27.60;50.70
32107;DHT22;18622;51.998;10.440;2023-09-19T13:41:45;27.30;51.00
32107;DHT22;18622;51.998;10.440;2023-09-19T13:44:14;27.00;51.50
32107;DHT22;18622;51.998;10.440;2023-09-19T13:46:42;26.40;52.10
32107;DHT22;18622;51.998;10.440;2023-09-19T13:49:11;26.00;52.60
32107;DHT22;18622;51.998;10.440;2023-09-19T13:51:39;25.60;53.40
32107;DHT22;18622;51.998;10.440;2023-09-19T13:54:08;25.40;53.10
32107;DHT22;18622;51.998;10.440;2023-09-19T13:56:38;25.10;54.30
32107;DHT22;18622;51.998;10.440;2023-09-19T13:59:06;24.80;54.40
32107;DHT22;18622;51.998;10.440;2023-09-19T14:01:33;24.70;54.40
32107;DHT22;18622;51.998;10.440;2023-09-19T14:04:01;24.60;55.30
32107;DHT22;18622;51.998;10.440;2023-09-19T14:06:29;24.60;54.90
32107;DHT22;18622;51.998;10.440;2023-09-19T14:08:57;24.70;55.30
32107;DHT22;18622;51.998;10.440;2023-09-19T14:11:25;25.00;55.20
32107;DHT22;18622;51.998;10.440;2023-09-19T14:13:53;25.50;54.80
32107;DHT22;18622;51.998;10.440;2023-09-19T14:16:21;25.90;54.00
32107;DHT22;18622;51.998;10.440;2023-09-19T14:18:50;26.50;53.50
32107;DHT22;18622;51.998;10.440;2023-09-19T14:21:18;27.00;51.30
32107;DHT22;18622;51.998;10.440;2023-09-19T14:23:46;27.10;51.90
32107;DHT22;18622;51.998;10.440;2023-09-19T14:26:16;27.10;51.20
32107;DHT22;18622;51.998;10.440;2023-09-19T14:28:45;27.10;51.10
32107;DHT22;18622;51.998;10.440;2023-09-19T14:31:13;27.20;51.30
32107;DHT22;18622;51.998;10.440;2023-09-19T14:33:41;27.20;51.60
32107;DHT22;18622;51.998;10.440;2023-09-19T14:36:10;27.30;51.50
32107;DHT22;18622;51.998;10.440;2023-09-19T14:38:39;27.40;51.60
32107;DHT22;18622;51.998;10.440;2023-09-19T14:41:07;27.60;52.00
32107;DHT22;18622;51.998;10.440;2023-09-19T14:43:35;27.80;51.50
32107;DHT22;18622;51.998;10.440;2023-09-19T14:46:04;27.90;51.10
32107;DHT22;18622;51.998;10.440;2023-09-19T14:48:33;27.90;51.00
32107;DHT22;18622;51.998;10.440;2023-09-19T14:51:05;28.00;51.20
32107;DHT22;18622;51.998;10.440;2023-09-19T14:53:37;28.20;51.10
32107;DHT22;18622;51.998;10.440;2023-09-19T14:56:07;28.20;50.20
32107;DHT22;18622;51.998;10.440;2023-09-19T14:58:35;27.90;50.10
32107;DHT22;18622;51.998;10.440;2023-09-19T15:01:06;27.60;50.70
32107;DHT22;18622;51.998;10.440;2023-09-19T15:03:35;27.30;51.30
32107;DHT22;18622;51.998;10.440;2023-09-19T15:06:03;27.20;51.00
32107;DHT22;18622;51.998;10.440;2023-09-19T15:08:36;27.20;51.00
32107;DHT22;18622;51.998;10.440;2023-09-19T15:11:09;26.90;51.70
32107;DHT22;18622;51.998;10.440;2023-09-19T15:13:37;26.80;51.60
32107;DHT22;18622;51.998;10.440;2023-09-19T15:16:08;26.90;52.60
32107;DHT22;18622;51.998;10.440;2023-09-19T15:18:39;27.10;51.50
32107;DHT22;18622;51.998;10.440;2023-09-19T15:21:13;27.10;51.70
32107;DHT22;18622;51.998;10.440;2023-09-19T15:23:39;27.00;52.50
32107;DHT22;18622;51.998;10.440;2023-09-19T15:26:07;26.90;52.40
32107;DHT22;18622;51.998;10.440;2023-09-19T15:28:39;26.90;52.70
32107;DHT22;18622;51.998;10.440;2023-09-19T15:31:13;27.00;52.40
32107;DHT22;18622;51.998;10.440;2023-09-19T15:33:38;27.00;52.30
32107;DHT22;18622;51.998;10.440;2023-09-19T15:36:08;27.10;51.60
32107;DHT22;18622;51.998;10.440;2023-09-19T15:41:20;26.80;52.20
32107;DHT22;18622;51.998;10.440;2023-09-19T15:43:48;26.50;52.90
32107;DHT22;18622;51.998;10.440;2023-09-19T15:46:16;26.50;53.60
32107;DHT22;18622;51.998;10.440;2023-09-19T15:48:44;26.50;53.10
32107;DHT22;18622;51.998;10.440;2023-09-19T15:51:12;26.40;53.20
32107;DHT22;18622;51.998;10.440;2023-09-19T15:53:45;26.40;53.40
32107;DHT22;18622;51.998;10.440;2023-09-19T15:56:13;26.10;53.30
32107;DHT22;18622;51.998;10.440;2023-09-19T15:58:44;25.70;54.10
32107;DHT22;18622;51.998;10.440;2023-09-19T16:01:14;25.40;54.70
32107;DHT22;18622;51.998;10.440;2023-09-19T16:03:47;25.00;55.30
32107;DHT22;18622;51.998;10.440;2023-09-19T16:06:17;24.50;55.80
32107;DHT22;18622;51.998;10.440;2023-09-19T16:08:47;23.70;57.60
32107;DHT22;18622;51.998;10.440;2023-09-19T16:11:16;23.00;59.10
32107;DHT22;18622;51.998;10.440;2023-09-19T16:13:44;22.50;60.40
32107;DHT22;18622;51.998;10.440;2023-09-19T16:16:13;22.00;61.60
32107;DHT22;18622;51.998;10.440;2023-09-19T16:18:46;21.60;62.70
32107;DHT22;18622;51.998;10.440;2023-09-19T16:21:18;21.30;63.50
32107;DHT22;18622;51.998;10.440;2023-09-19T16:23:47;21.00;64.30
32107;DHT22;18622;51.998;10.440;2023-09-19T16:26:17;20.80;65.10
32107;DHT22;18622;51.998;10.440;2023-09-19T16:28:47;20.60;65.40
32107;DHT22;18622;51.998;10.440;2023-09-19T16:31:17;20.40;65.90
32107;DHT22;18622;51.998;10.440;2023-09-19T16:33:46;20.20;67.00
32107;DHT22;18622;51.998;10.440;2023-09-19T16:36:19;20.10;66.90
32107;DHT22;18622;51.998;10.440;2023-09-19T16:38:46;20.00;67.50
32107;DHT22;18622;51.998;10.440;2023-09-19T16:41:15;19.90;68.30
32107;DHT22;18622;51.998;10.440;2023-09-19T16:43:43;19.80;68.20
32107;DHT22;18622;51.998;10.440;2023-09-19T16:46:12;19.80;68.70
32107;DHT22;18622;51.998;10.440;2023-09-19T16:48:47;19.70;69.00
32107;DHT22;18622;51.998;10.440;2023-09-19T16:51:13;19.60;70.00
32107;DHT22;18622;51.998;10.440;2023-09-19T16:53:40;19.60;69.80
32107;DHT22;18622;51.998;10.440;2023-09-19T16:56:10;19.50;69.80
32107;DHT22;18622;51.998;10.440;2023-09-19T16:58:41;19.40;69.80
32107;DHT22;18622;51.998;10.440;2023-09-19T17:01:13;19.40;70.10
32107;DHT22;18622;51.998;10.440;2023-09-19T17:03:43;19.30;70.60
32107;DHT22;18622;51.998;10.440;2023-09-19T17:06:12;19.20;70.70
32107;DHT22;18622;51.998;10.440;2023-09-19T17:08:42;19.20;71.00
32107;DHT22;18622;51.998;10.440;2023-09-19T17:11:12;19.10;72.30
32107;DHT22;18622;51.998;10.440;2023-09-19T17:13:46;19.00;72.50
32107;DHT22;18622;51.998;10.440;2023-09-19T17:16:16;19.00;72.00
32107;DHT22;18622;51.998;10.440;2023-09-19T17:18:56;18.90;71.90
32107;DHT22;18622;51.998;10.440;2023-09-19T17:21:25;18.90;72.10
32107;DHT22;18622;51.998;10.440;2023-09-19T17:23:53;18.80;72.40
32107;DHT22;18622;51.998;10.440;2023-09-19T17:26:22;18.80;72.40
32107;DHT22;18622;51.998;10.440;2023-09-19T17:28:52;18.70;72.80
32107;DHT22;18622;51.998;10.440;2023-09-19T17:31:21;18.70;72.60
32107;DHT22;18622;51.998;10.440;2023-09-19T17:33:51;18.60;72.50
32107;DHT22;18622;51.998;10.440;2023-09-19T17:36:21;18.60;72.80
32107;DHT22;18622;51.998;10.440;2023-09-19T17:38:58;18.50;73.10
32107;DHT22;18622;51.998;10.440;2023-09-19T17:41:24;18.50;73.80
32107;DHT22;18622;51.998;10.440;2023-09-19T17:43:54;18.40;73.90
32107;DHT22;18622;51.998;10.440;2023-09-19T17:46:25;18.30;74.20
32107;DHT22;18622;51.998;10.440;2023-09-19T17:48:56;18.30;74.50
32107;DHT22;18622;51.998;10.440;2023-09-19T17:51:25;18.20;74.70
32107;DHT22;18622;51.998;10.440;2023-09-19T17:53:55;18.20;74.10
32107;DHT22;18622;51.998;10.440;2023-09-19T17:56:25;18.30;74.20
32107;DHT22;18622;51.998;10.440;2023-09-19T17:58:52;18.30;74.50
32107;DHT22;18622;51.998;10.440;2023-09-19T18:01:24;18.20;74.20
32107;DHT22;18622;51.998;10.440;2023-09-19T18:03:56;18.30;74.10
32107;DHT22;18622;51.998;10.440;2023-09-19T18:06:25;18.20;74.20
32107;DHT22;18622;51.998;10.440;2023-09-19T18:08:53;18.20;74.40
32107;DHT22;18622;51.998;10.440;2023-09-19T18:11:21;18.20;74.40
32107;DHT22;18622;51.998;10.440;2023-09-19T18:13:52;18.10;74.30
32107;DHT22;18622;51.998;10.440;2023-09-19T18:16:22;18.10;74.70
32107;DHT22;18622;51.998;10.440;2023-09-19T18:18:51;18.20;74.40
32107;DHT22;18622;51.998;10.440;2023-09-19T18:21:20;18.20;74.30
32107;DHT22;18622;51.998;10.440;2023-09-19T18:23:55;18.20;74.40
32107;DHT22;18622;51.998;10.440;2023-09-19T18:26:24;18.20;74.20
32107;DHT22;18622;51.998;10.440;2023-09-19T18:28:53;18.20;74.20
32107;DHT22;18622;51.998;10.440;2023-09-19T18:31:20;18.30;74.10
32107;DHT22;18622;51.998;10.440;2023-09-19T18:33:48;18.30;74.10
32107;DHT22;18622;51.998;10.440;2023-09-19T18:36:16;18.30;74.00
32107;DHT22;18622;51.998;10.440;2023-09-19T18:38:44;18.30;74.20
32107;DHT22;18622;51.998;10.440;2023-09-19T18:41:14;18.30;74.20
32107;DHT22;18622;51.998;10.440;2023-09-19T18:43:42;18.30;74.40
32107;DHT22;18622;51.998;10.440;2023-09-19T18:46:10;18.30;74.70
32107;DHT22;18622;51.998;10.440;2023-09-19T18:48:41;18.30;74.80
32107;DHT22;18622;51.998;10.440;2023-09-19T18:51:14;18.20;74.90
32107;DHT22;18622;51.998;10.440;2023-09-19T18:53:44;18.20;75.00
32107;DHT22;18622;51.998;10.440;2023-09-19T18:56:12;18.20;75.10
32107;DHT22;18622;51.998;10.440;2023-09-19T18:58:41;18.20;75.70
32107;DHT22;18622;51.998;10.440;2023-09-19T19:01:10;18.20;75.60
32107;DHT22;18622;51.998;10.440;2023-09-19T19:03:39;18.20;75.60
32107;DHT22;18622;51.998;10.440;2023-09-19T19:06:12;18.20;75.90
32107;DHT22;18622;51.998;10.440;2023-09-19T19:08:42;18.20;75.90
32107;DHT22;18622;51.998;10.440;2023-09-19T19:11:12;18.20;76.10
32107;DHT22;18622;51.998;10.440;2023-09-19T19:13:43;18.20;76.10
32107;DHT22;18622;51.998;10.440;2023-09-19T19:16:12;18.20;76.40
32107;DHT22;18622;51.998;10.440;2023-09-19T19:18:41;18.20;76.40
32107;DHT22;18622;51.998;10.440;2023-09-19T19:21:09;18.20;76.50
32107;DHT22;18622;51.998;10.440;2023-09-19T19:23:39;18.20;76.70
32107;DHT22;18622;51.998;10.440;2023-09-19T19:26:08;18.20;77.60
32107;DHT22;18622;51.998;10.440;2023-09-19T19:28:36;18.10;77.00
32107;DHT22;18622;51.998;10.440;2023-09-19T19:31:05;18.10;77.20
32107;DHT22;18622;51.998;10.440;2023-09-19T19:33:34;18.10;77.30
32107;DHT22;18622;51.998;10.440;2023-09-19T19:36:07;18.10;77.40
32107;DHT22;18622;51.998;10.440;2023-09-19T19:38:39;18.10;77.60
32107;DHT22;18622;51.998;10.440;2023-09-19T19:41:08;18.10;77.80
32107;DHT22;18622;51.998;10.440;2023-09-19T19:43:35;18.10;77.90
32107;DHT22;18622;51.998;10.440;2023-09-19T19:46:05;18.10;78.20
32107;DHT22;18622;51.998;10.440;2023-09-19T19:48:33;18.10;78.00
32107;DHT22;18622;51.998;10.440;2023-09-19T19:51:09;18.10;77.90
32107;DHT22;18622;51.998;10.440;2023-09-19T19:53:39;18.20;77.70
32107;DHT22;18622;51.998;10.440;2023-09-19T19:56:07;18.20;77.50
32107;DHT22;18622;51.998;10.440;2023-09-19T19:58:35;18.20;77.60
32107;DHT22;18622;51.998;10.440;2023-09-19T20:01:03;18.20;78.00
32107;DHT22;18622;51.998;10.440;2023-09-19T20:03:35;18.20;77.50